Time;durP1;ratioP1;P1;durP2;ratioP2;P2;SDS_P1;SDS_P2;PMS_P1;PMS_P2;Temp;Humidity;BMP_temperature;BMP_pressure;BME280_temperature;BME280_humidity;BME280_pressure;Samples;Min_cycle;Max_cycle;Signal;HPM_P1;HPM_P2
2021/12/21 03:58:17;;;;;;;20.65;8.82;;;;;;;;;;5454787;23;20033;-87
2021/12/21 04:03:34;;;;;;;22.30;8.77;;;;;;;;;;5576656;23;20048;-84
2021/12/21 04:14:05;;;;;;;21.50;9.47;;;;;;;;;;5512434;23;20092;-81
2021/12/21 04:27:11;;;;;;;17.60;6.90;;;;;;;;;;5509243;23;20073;-82
2021/12/21 04:43:06;;;;;;;23.35;7.43;;;;;;;;;;5389669;23;20044;-83
2021/12/21 04:45:36;;;;;;;21.73;7.93;;;;;;;;;;4903329;29;20013;-82
2021/12/21 04:48:10;;;;;;;20.10;7.43;;;;;;;;;;4902942;29;20006;-83
2021/12/21 04:55:48;;;;;;;17.67;7.30;;;;;;;;;;5027436;23;20048;-83
2021/12/21 04:58:24;;;;;;;21.07;7.07;;;;;;;;;;4900106;29;20085;-82
2021/12/21 05:11:21;;;;;;;15.87;7.37;;;;;;;;;;4990779;23;20041;-83
2021/12/21 05:13:52;;;;;;;17.93;7.67;;;;;;;;;;4903453;29;20033;-83
2021/12/21 05:16:36;;;;;;;16.40;6.93;;;;;;;;;;4903422;29;20036;-83
2021/12/21 05:19:14;;;;;;;19.73;6.90;;;;;;;;;;4902424;29;20016;-83
2021/12/21 05:21:44;;;;;;;18.80;6.72;;;;;;;;;;4902430;29;20069;-82
2021/12/21 05:24:17;;;;;;;15.50;6.80;;;;;;;;;;4902594;29;20054;-84
2021/12/21 05:26:52;;;;;;;15.02;7.03;;;;;;;;;;4902661;29;20016;-82
2021/12/21 05:29:20;;;;;;;20.17;6.72;;;;;;;;;;4902769;29;20025;-82
2021/12/21 05:31:46;;;;;;;19.87;7.10;;;;;;;;;;4902681;29;20034;-84
2021/12/21 05:34:18;;;;;;;20.42;8.18;;;;;;;;;;4898301;29;20028;-82
2021/12/21 05:36:45;;;;;;;19.23;8.17;;;;;;;;;;4900523;29;20029;-83
2021/12/21 05:39:21;;;;;;;21.77;7.53;;;;;;;;;;4898244;29;20084;-82
2021/12/21 05:41:50;;;;;;;18.85;7.80;;;;;;;;;;4892016;29;20036;-81
2021/12/21 05:44:17;;;;;;;18.10;7.27;;;;;;;;;;4893115;29;20021;-80
2021/12/21 05:46:44;;;;;;;18.53;8.13;;;;;;;;;;4898933;29;20021;-82
2021/12/21 05:49:11;;;;;;;18.17;7.13;;;;;;;;;;4901254;29;20021;-81
2021/12/21 05:51:37;;;;;;;15.03;6.40;;;;;;;;;;4897929;29;20049;-82
2021/12/21 05:54:05;;;;;;;18.90;7.20;;;;;;;;;;4899867;29;20024;-82
2021/12/21 05:56:37;;;;;;;13.85;6.93;;;;;;;;;;4901161;29;20001;-83
2021/12/21 05:59:05;;;;;;;17.38;7.93;;;;;;;;;;4901336;29;20148;-81
2021/12/21 06:01:36;;;;;;;16.95;6.97;;;;;;;;;;4900132;29;20051;-83
2021/12/21 06:04:02;;;;;;;18.83;7.40;;;;;;;;;;4901446;29;20112;-82
2021/12/21 06:06:30;;;;;;;19.23;6.90;;;;;;;;;;4901689;29;20028;-82
2021/12/21 06:08:58;;;;;;;17.30;6.65;;;;;;;;;;4900043;29;20021;-81
2021/12/21 06:11:32;;;;;;;18.47;7.20;;;;;;;;;;4902800;29;20033;-81
2021/12/21 06:27:25;;;;;;;17.43;7.00;;;;;;;;;;4905412;29;20048;-82
2021/12/21 06:29:51;;;;;;;16.63;7.65;;;;;;;;;;4904300;29;20036;-82
2021/12/21 06:32:20;;;;;;;24.90;7.50;;;;;;;;;;4903125;29;20036;-82
2021/12/21 06:34:51;;;;;;;17.85;6.97;;;;;;;;;;4902721;29;20013;-83
2021/12/21 06:37:20;;;;;;;15.73;6.47;;;;;;;;;;4901192;29;20096;-81
2021/12/21 06:40:04;;;;;;;15.60;6.50;;;;;;;;;;4902250;29;20009;-82
2021/12/21 06:42:47;;;;;;;13.80;6.97;;;;;;;;;;4900911;29;20021;-81
2021/12/21 06:45:26;;;;;;;20.67;6.60;;;;;;;;;;4901778;29;20058;-83
2021/12/21 06:53:23;;;;;;;16.77;6.97;;;;;;;;;;4903303;29;20032;-82
2021/12/21 06:56:10;;;;;;;;;;;;;;;;;;4901537;29;20052;-82
2021/12/21 06:58:42;;;;;;;14.03;6.20;;;;;;;;;;4902052;29;19918;-79
2021/12/21 07:01:10;;;;;;;13.17;5.90;;;;;;;;;;4902187;29;20068;-80
2021/12/21 07:03:39;;;;;;;;;;;;;;;;;;4901615;29;20024;-82
2021/12/21 07:06:08;;;;;;;17.23;6.90;;;;;;;;;;4901437;29;19908;-81
2021/12/21 07:08:45;;;;;;;12.67;6.70;;;;;;;;;;4901426;29;20033;-82
2021/12/21 07:19:27;;;;;;;15.33;6.67;;;;;;;;;;4903862;29;20048;-83
2021/12/21 07:21:58;;;;;;;16.33;6.80;;;;;;;;;;4903263;29;20005;-81
2021/12/21 07:24:25;;;;;;;15.18;6.95;;;;;;;;;;4903435;29;20017;-84
2021/12/21 07:26:51;;;;;;;15.80;6.15;;;;;;;;;;4901176;29;20053;-83
2021/12/21 07:29:17;;;;;;;19.50;7.50;;;;;;;;;;4902863;29;20100;-82
2021/12/21 07:31:43;;;;;;;15.55;7.00;;;;;;;;;;4901398;29;20021;-85
2021/12/21 07:34:09;;;;;;;18.37;7.07;;;;;;;;;;4902504;29;20001;-84
2021/12/21 07:36:47;;;;;;;22.25;7.72;;;;;;;;;;4902587;29;20017;-84
2021/12/21 07:39:17;;;;;;;15.75;6.70;;;;;;;;;;4902603;29;20035;-84
2021/12/21 07:41:45;;;;;;;13.02;6.90;;;;;;;;;;4904296;29;20040;-83
2021/12/21 07:44:14;;;;;;;19.57;6.80;;;;;;;;;;4903816;29;20021;-82
2021/12/21 07:46:46;;;;;;;23.13;7.15;;;;;;;;;;4903189;29;20025;-84
2021/12/21 07:49:13;;;;;;;16.02;6.40;;;;;;;;;;4902854;29;20031;-84
2021/12/21 07:51:41;;;;;;;22.02;7.50;;;;;;;;;;4902568;29;20017;-84
2021/12/21 07:54:11;;;;;;;15.77;7.53;;;;;;;;;;4902126;29;20017;-83
2021/12/21 07:56:36;;;;;;;;;;;;;;;;;;4901684;29;20009;-83
2021/12/21 07:59:02;;;;;;;16.02;6.16;;;;;;;;;;4900784;29;19923;-86
2021/12/21 08:01:27;;;;;;;13.63;6.40;;;;;;;;;;4901430;29;20020;-85
2021/12/21 08:03:53;;;;;;;19.90;6.72;;;;;;;;;;4899234;29;20025;-83
2021/12/21 08:06:20;;;;;;;17.92;6.63;;;;;;;;;;4902365;29;20025;-84
2021/12/21 08:08:48;;;;;;;14.73;6.40;;;;;;;;;;4902970;29;20016;-86
2021/12/21 08:12:12;;;;;;;18.80;6.83;;;;;;;;;;4902787;29;20081;-86
2021/12/21 08:14:21;;;;;;;17.67;7.03;;;;;;;;;;4902007;29;20021;-84
2021/12/21 08:16:47;;;;;;;18.73;6.68;;;;;;;;;;4899283;29;20035;-84
2021/12/21 08:22:12;;;;;;;11.52;6.22;;;;;;;;;;4893995;29;20028;-86
2021/12/21 08:24:38;;;;;;;12.52;6.20;;;;;;;;;;4895417;29;20021;-84
2021/12/21 08:27:04;;;;;;;16.33;5.95;;;;;;;;;;4892023;29;20029;-85
2021/12/21 08:29:30;;;;;;;14.30;5.97;;;;;;;;;;4887875;29;20396;-84
2021/12/21 08:31:55;;;;;;;18.92;7.18;;;;;;;;;;4882988;29;20052;-85
2021/12/21 08:34:22;;;;;;;22.00;7.10;;;;;;;;;;4888565;29;20032;-83
2021/12/21 08:36:48;;;;;;;18.17;7.93;;;;;;;;;;4890476;29;20023;-83
2021/12/21 08:39:17;;;;;;;16.40;7.63;;;;;;;;;;4890608;29;20084;-84
2021/12/21 08:41:51;;;;;;;14.48;6.78;;;;;;;;;;4898521;29;20009;-81
2021/12/21 08:44:21;;;;;;;16.02;7.80;;;;;;;;;;4896190;29;20032;-81
2021/12/21 08:46:49;;;;;;;16.80;7.30;;;;;;;;;;4899338;29;20073;-83
2021/12/21 08:52:11;;;;;;;16.77;7.57;;;;;;;;;;4898197;29;20033;-82
2021/12/21 08:54:43;;;;;;;17.73;7.82;;;;;;;;;;4898604;29;20036;-82
2021/12/21 08:57:09;;;;;;;19.60;8.03;;;;;;;;;;4896999;29;20039;-81
2021/12/21 08:59:35;;;;;;;21.37;8.10;;;;;;;;;;4897187;29;20021;-80
2021/12/21 09:02:00;;;;;;;20.10;8.83;;;;;;;;;;4897492;29;20043;-82
2021/12/21 09:04:27;;;;;;;19.00;9.00;;;;;;;;;;4899104;29;20013;-83
2021/12/21 09:06:53;;;;;;;24.27;9.67;;;;;;;;;;4897528;29;20025;-81
2021/12/21 09:09:22;;;;;;;18.00;8.97;;;;;;;;;;4897773;29;20017;-82
2021/12/21 09:11:53;;;;;;;23.67;9.35;;;;;;;;;;4898399;29;20028;-83
2021/12/21 09:14:21;;;;;;;23.07;9.83;;;;;;;;;;4896346;29;20025;-83
2021/12/21 09:16:55;;;;;;;24.70;9.55;;;;;;;;;;4895212;29;20033;-82
2021/12/21 09:19:26;;;;;;;20.80;8.30;;;;;;;;;;4897065;29;20032;-83
2021/12/21 09:21:58;;;;;;;23.67;9.33;;;;;;;;;;4897866;29;20017;-83
2021/12/21 09:24:47;;;;;;;17.93;8.67;;;;;;;;;;4898737;29;20058;-83
2021/12/21 09:27:16;;;;;;;28.73;9.00;;;;;;;;;;4899699;29;20092;-82
2021/12/21 09:29:46;;;;;;;19.03;8.20;;;;;;;;;;4902735;29;20036;-82
2021/12/21 09:32:15;;;;;;;18.10;8.63;;;;;;;;;;4903229;29;20041;-83
2021/12/21 09:34:46;;;;;;;18.17;8.80;;;;;;;;;;4905032;29;20018;-82
2021/12/21 09:37:21;;;;;;;22.97;8.83;;;;;;;;;;4903790;29;20025;-82
2021/12/21 09:39:56;;;;;;;17.27;8.30;;;;;;;;;;4901316;29;20005;-83
2021/12/21 09:42:24;;;;;;;19.37;9.03;;;;;;;;;;4902674;29;20036;-83
2021/12/21 09:44:53;;;;;;;19.60;8.48;;;;;;;;;;4903210;29;20045;-83
2021/12/21 09:47:22;;;;;;;18.23;8.73;;;;;;;;;;4904133;29;20102;-82
2021/12/21 09:49:48;;;;;;;21.17;8.75;;;;;;;;;;4901485;29;20005;-83
2021/12/21 09:52:34;;;;;;;;;;;;;;;;;;;;;
2021/12/21 09:55:02;;;;;;;20.00;7.77;;;;;;;;;;4901697;29;20064;-83
2021/12/21 09:57:30;;;;;;;22.50;7.77;;;;;;;;;;4902567;29;20032;-82
2021/12/21 09:59:56;;;;;;;;;;;;;;;;;;4902769;29;20032;-82
2021/12/21 10:02:27;;;;;;;19.13;7.83;;;;;;;;;;4902617;29;19914;-83
2021/12/21 10:05:06;;;;;;;14.23;7.50;;;;;;;;;;4904152;29;20021;-82
2021/12/21 10:07:32;;;;;;;20.10;7.73;;;;;;;;;;4902527;29;20032;-85
2021/12/21 10:10:06;;;;;;;18.43;7.97;;;;;;;;;;4901892;29;20048;-83
2021/12/21 10:12:38;;;;;;;18.03;7.50;;;;;;;;;;4903848;29;20044;-83
2021/12/21 10:15:12;;;;;;;20.80;8.83;;;;;;;;;;4902938;29;20057;-83
2021/12/21 10:17:50;;;;;;;17.07;7.33;;;;;;;;;;4903549;29;20044;-83
2021/12/21 10:20:29;;;;;;;18.02;8.38;;;;;;;;;;4903320;29;20006;-83
2021/12/21 10:22:55;;;;;;;22.65;8.73;;;;;;;;;;4904427;29;20012;-83
2021/12/21 10:25:27;;;;;;;15.83;8.20;;;;;;;;;;4903205;29;20019;-83
2021/12/21 10:27:56;;;;;;;23.90;10.10;;;;;;;;;;4904685;29;20010;-83
2021/12/21 10:30:27;;;;;;;21.73;8.15;;;;;;;;;;4904720;29;20017;-83
2021/12/21 10:32:56;;;;;;;20.92;8.30;;;;;;;;;;4905813;29;20001;-83
2021/12/21 10:35:47;;;;;;;20.75;8.80;;;;;;;;;;4904313;29;20009;-83
2021/12/21 10:38:30;;;;;;;18.50;8.20;;;;;;;;;;4902119;29;20048;-84
2021/12/21 10:41:13;;;;;;;22.00;9.18;;;;;;;;;;4904177;29;20009;-85
2021/12/21 10:43:41;;;;;;;26.93;9.47;;;;;;;;;;4903843;29;20029;-83
2021/12/21 10:46:13;;;;;;;27.73;9.80;;;;;;;;;;4899992;29;20037;-83
2021/12/21 10:48:47;;;;;;;23.40;10.38;;;;;;;;;;4902618;29;20015;-82
2021/12/21 10:51:36;;;;;;;24.73;10.30;;;;;;;;;;4902810;29;20021;-83
2021/12/21 10:54:01;;;;;;;;;;;;;;;;;;4903854;29;20017;-84
2021/12/21 10:56:33;;;;;;;26.53;10.00;;;;;;;;;;4904280;29;19907;-83
2021/12/21 10:59:00;;;;;;;23.58;10.75;;;;;;;;;;4902983;29;20029;-82
2021/12/21 11:01:37;;;;;;;28.23;10.93;;;;;;;;;;4904051;29;20033;-83
2021/12/21 11:04:12;;;;;;;35.10;11.93;;;;;;;;;;4904645;29;20013;-84
2021/12/21 11:06:48;;;;;;;25.48;11.10;;;;;;;;;;4903733;29;20037;-82
2021/12/21 11:09:17;;;;;;;32.40;11.25;;;;;;;;;;4902287;29;20010;-81
2021/12/21 11:11:48;;;;;;;30.85;11.57;;;;;;;;;;4902198;29;20045;-82
2021/12/21 11:14:24;;;;;;;37.27;12.53;;;;;;;;;;4901932;29;20044;-83
2021/12/21 11:16:51;;;;;;;29.83;12.93;;;;;;;;;;4900593;29;20025;-82
2021/12/21 11:19:18;;;;;;;38.70;12.80;;;;;;;;;;4900016;29;20018;-82
2021/12/21 11:21:55;;;;;;;27.03;11.27;;;;;;;;;;4899508;29;20025;-81
2021/12/21 11:24:26;;;;;;;34.53;12.60;;;;;;;;;;4901026;29;20028;-82
2021/12/21 11:26:52;;;;;;;31.15;11.02;;;;;;;;;;4900811;29;20095;-82
2021/12/21 11:29:27;;;;;;;31.00;12.05;;;;;;;;;;4901462;29;20009;-82
2021/12/21 11:32:00;;;;;;;29.27;11.20;;;;;;;;;;4900616;29;20049;-82
2021/12/21 11:34:33;;;;;;;28.48;11.70;;;;;;;;;;4900877;29;20096;-81
2021/12/21 11:39:42;;;;;;;31.88;11.50;;;;;;;;;;4901457;29;20031;-84
2021/12/21 11:42:30;;;;;;;30.70;12.18;;;;;;;;;;4898725;29;20013;-81
2021/12/21 11:45:07;;;;;;;32.83;12.63;;;;;;;;;;4913377;29;20025;-83
2021/12/21 11:47:43;;;;;;;30.73;13.33;;;;;;;;;;4899443;29;20044;-82
2021/12/21 11:50:09;;;;;;;34.03;14.13;;;;;;;;;;4899116;29;20036;-83
2021/12/21 11:52:45;;;;;;;35.00;12.85;;;;;;;;;;4899971;29;20096;-81
2021/12/21 11:55:11;;;;;;;34.63;14.43;;;;;;;;;;4899644;29;20060;-80
2021/12/21 11:57:46;;;;;;;29.13;13.70;;;;;;;;;;4901733;29;20033;-82
2021/12/21 12:00:13;;;;;;;30.80;14.23;;;;;;;;;;4899769;29;20084;-83
2021/12/21 12:02:49;;;;;;;36.45;13.90;;;;;;;;;;4900729;29;20040;-82
2021/12/21 12:05:21;;;;;;;28.52;11.30;;;;;;;;;;4902120;29;20020;-82
2021/12/21 12:08:01;;;;;;;29.17;13.20;;;;;;;;;;4902120;29;20020;-84
2021/12/21 12:10:29;;;;;;;28.08;12.90;;;;;;;;;;4901321;29;20033;-84
2021/12/21 12:12:55;;;;;;;32.72;12.32;;;;;;;;;;4902489;29;20029;-83
2021/12/21 12:15:24;;;;;;;30.00;11.35;;;;;;;;;;4903165;29;20045;-83
2021/12/21 12:17:51;;;;;;;30.60;13.48;;;;;;;;;;4902194;29;20048;-82
2021/12/21 12:20:25;;;;;;;50.05;19.65;;;;;;;;;;4902215;29;20009;-84
2021/12/21 12:23:04;;;;;;;34.97;13.25;;;;;;;;;;4901851;29;20017;-83
2021/12/21 12:25:30;;;;;;;26.23;11.73;;;;;;;;;;4901809;29;20037;-85
2021/12/21 12:27:56;;;;;;;26.38;11.30;;;;;;;;;;4895548;29;20050;-84
2021/12/21 12:30:23;;;;;;;22.45;10.52;;;;;;;;;;4891574;29;20009;-86
2021/12/21 12:32:48;;;;;;;25.83;11.85;;;;;;;;;;4888869;29;20025;-86
2021/12/21 12:35:18;;;;;;;25.00;10.48;;;;;;;;;;4882695;29;20021;-85
2021/12/21 12:37:51;;;;;;;21.98;9.48;;;;;;;;;;4882468;29;20080;-86
2021/12/21 12:40:18;;;;;;;23.95;10.32;;;;;;;;;;4880881;29;20053;-84
2021/12/21 12:42:53;;;;;;;19.17;9.63;;;;;;;;;;4889851;29;20033;-85
2021/12/21 12:45:22;;;;;;;20.75;9.85;;;;;;;;;;4898869;29;20021;-83
2021/12/21 12:47:52;;;;;;;27.92;10.60;;;;;;;;;;4891554;29;20072;-84
2021/12/21 12:50:30;;;;;;;21.40;8.75;;;;;;;;;;4881209;29;20036;-84
2021/12/21 12:52:58;;;;;;;27.70;9.45;;;;;;;;;;4880874;29;20093;-90
2021/12/21 12:55:25;;;;;;;22.48;9.98;;;;;;;;;;4882036;29;20033;-85
2021/12/21 12:58:00;;;;;;;25.08;10.45;;;;;;;;;;4881507;29;20021;-84
2021/12/21 13:00:27;;;;;;;24.30;10.93;;;;;;;;;;4880796;29;20021;-84
2021/12/21 13:02:55;;;;;;;23.13;10.23;;;;;;;;;;4880565;29;20044;-84
2021/12/21 13:05:23;;;;;;;26.80;10.63;;;;;;;;;;4880908;29;20032;-85
2021/12/21 13:07:49;;;;;;;23.20;10.35;;;;;;;;;;4879862;29;20060;-89
2021/12/21 13:10:14;;;;;;;21.75;9.95;;;;;;;;;;4880912;29;20040;-88
2021/12/21 13:12:40;;;;;;;28.17;10.68;;;;;;;;;;4880074;29;20021;-85
2021/12/21 13:15:06;;;;;;;22.63;10.10;;;;;;;;;;4882411;29;20101;-85
2021/12/21 13:17:31;;;;;;;25.27;11.15;;;;;;;;;;4878977;29;20036;-84
2021/12/21 13:19:56;;;;;;;22.90;9.38;;;;;;;;;;4879894;29;20017;-86
2021/12/21 13:22:26;;;;;;;20.88;9.73;;;;;;;;;;4881384;29;20033;-85
2021/12/21 13:24:52;;;;;;;22.60;10.77;;;;;;;;;;4880462;29;20032;-86
2021/12/21 13:27:20;;;;;;;21.52;9.35;;;;;;;;;;4883429;29;20029;-84
2021/12/21 13:29:45;;;;;;;23.05;9.82;;;;;;;;;;4883923;29;20053;-85
2021/12/21 13:32:14;;;;;;;16.70;6.95;;;;;;;;;;4881464;29;20025;-89
2021/12/21 13:34:39;;;;;;;;;;;;;;;;;;4880773;29;20025;-88
2021/12/21 13:37:07;;;;;;;11.27;4.07;;;;;;;;;;4879574;29;19908;-86
2021/12/21 13:39:44;;;;;;;8.63;3.90;;;;;;;;;;4879344;29;20017;-89
2021/12/21 13:42:19;;;;;;;11.75;4.47;;;;;;;;;;4878620;29;20021;-87
2021/12/21 13:44:46;;;;;;;8.85;3.42;;;;;;;;;;4879747;29;20113;-88
2021/12/21 13:47:22;;;;;;;13.77;4.68;;;;;;;;;;4881787;29;20021;-84
2021/12/21 13:49:55;;;;;;;8.82;2.95;;;;;;;;;;4882435;29;20108;-86
2021/12/21 13:52:21;;;;;;;8.15;3.17;;;;;;;;;;4881613;29;20111;-87
2021/12/21 13:54:46;;;;;;;10.18;3.60;;;;;;;;;;4884578;29;20025;-82
2021/12/21 13:57:16;;;;;;;8.23;2.65;;;;;;;;;;4886752;29;20503;-87
2021/12/21 13:59:41;;;;;;;12.40;4.57;;;;;;;;;;4893460;29;20069;-82
2021/12/21 14:02:08;;;;;;;10.00;4.35;;;;;;;;;;4897536;29;20021;-83
2021/12/21 14:04:48;;;;;;;15.07;5.10;;;;;;;;;;4898090;29;20017;-82
2021/12/21 14:07:14;;;;;;;13.00;4.13;;;;;;;;;;4897629;29;20029;-81
2021/12/21 14:09:43;;;;;;;15.27;5.55;;;;;;;;;;4895975;29;20101;-82
2021/12/21 14:12:15;;;;;;;16.92;6.97;;;;;;;;;;4898205;29;20081;-81
2021/12/21 14:14:49;;;;;;;18.10;6.53;;;;;;;;;;4900343;29;20029;-82
2021/12/21 14:17:30;;;;;;;16.02;7.30;;;;;;;;;;4898742;29;20021;-81
2021/12/21 14:19:57;;;;;;;23.25;9.25;;;;;;;;;;4897971;29;20050;-82
2021/12/21 14:22:28;;;;;;;21.90;9.45;;;;;;;;;;4898932;29;20025;-82
2021/12/21 14:24:57;;;;;;;20.58;9.57;;;;;;;;;;4900092;29;20013;-83
2021/12/21 14:27:29;;;;;;;23.40;10.32;;;;;;;;;;4900448;29;20033;-83
2021/12/21 14:30:08;;;;;;;23.42;9.23;;;;;;;;;;4896004;29;20029;-82
2021/12/21 14:35:35;;;;;;;20.33;8.25;;;;;;;;;;4887455;29;20044;-83
2021/12/21 14:38:08;;;;;;;27.85;9.40;;;;;;;;;;4898135;29;20025;-82
2021/12/21 14:40:43;;;;;;;22.83;9.68;;;;;;;;;;4901868;29;20083;-83
2021/12/21 14:43:19;;;;;;;24.80;10.27;;;;;;;;;;4899897;29;20012;-82
2021/12/21 14:45:46;;;;;;;23.38;11.27;;;;;;;;;;4901655;29;20017;-82
2021/12/21 14:48:16;;;;;;;29.58;12.20;;;;;;;;;;4900637;29;20032;-83
2021/12/21 14:50:47;;;;;;;31.73;13.02;;;;;;;;;;4900275;29;20021;-83
2021/12/21 14:53:21;;;;;;;27.70;12.07;;;;;;;;;;4901208;29;20027;-82
2021/12/21 14:55:46;;;;;;;29.67;12.20;;;;;;;;;;4903193;29;20009;-85
2021/12/21 14:58:16;;;;;;;30.70;11.93;;;;;;;;;;4902490;29;20021;-81
2021/12/21 15:00:54;;;;;;;33.47;12.82;;;;;;;;;;4900802;29;20032;-84
2021/12/21 15:03:22;;;;;;;32.97;11.93;;;;;;;;;;4899143;29;20032;-83
2021/12/21 15:05:51;;;;;;;35.33;13.55;;;;;;;;;;4897985;29;20053;-82
2021/12/21 15:08:20;;;;;;;27.55;12.73;;;;;;;;;;4896896;29;20021;-82
2021/12/21 15:10:45;;;;;;;29.23;12.52;;;;;;;;;;4894833;29;20196;-83
2021/12/21 15:13:14;;;;;;;31.90;13.27;;;;;;;;;;4897444;29;20048;-82
2021/12/21 15:15:42;;;;;;;26.17;11.00;;;;;;;;;;4899994;29;20024;-81
2021/12/21 15:18:11;;;;;;;29.10;12.77;;;;;;;;;;4899039;29;20085;-81
2021/12/21 15:20:36;;;;;;;31.38;12.38;;;;;;;;;;4901985;29;20013;-83
2021/12/21 15:23:03;;;;;;;30.65;13.55;;;;;;;;;;4901955;29;20031;-83
2021/12/21 15:25:29;;;;;;;28.27;13.80;;;;;;;;;;4899014;29;20029;-83
2021/12/21 15:27:55;;;;;;;21.83;10.57;;;;;;;;;;4902034;29;20053;-83
2021/12/21 15:30:26;;;;;;;28.13;12.02;;;;;;;;;;4899255;29;20021;-83
2021/12/21 15:33:13;;;;;;;29.20;14.30;;;;;;;;;;4899768;29;20025;-83
2021/12/21 15:35:40;;;;;;;25.60;13.13;;;;;;;;;;4900657;29;20029;-83
2021/12/21 15:38:11;;;;;;;30.45;13.35;;;;;;;;;;4900371;29;20020;-83
2021/12/21 15:40:42;;;;;;;30.35;13.15;;;;;;;;;;4898868;29;20032;-83
2021/12/21 15:43:09;;;;;;;34.67;14.05;;;;;;;;;;4900676;29;20084;-82
2021/12/21 15:45:34;;;;;;;30.98;14.68;;;;;;;;;;4899908;29;20013;-83
2021/12/21 15:48:00;;;;;;;29.40;13.52;;;;;;;;;;4901415;29;20056;-81
2021/12/21 15:50:28;;;;;;;38.75;15.18;;;;;;;;;;4900965;29;20029;-82
2021/12/21 15:52:59;;;;;;;33.38;13.15;;;;;;;;;;4899846;29;20113;-83
2021/12/21 15:57:59;;;;;;;32.88;14.68;;;;;;;;;;4882955;29;20135;-89
2021/12/21 16:21:06;;;;;;;34.42;15.85;;;;;;;;;;5488143;23;20053;-85
2021/12/21 16:26:12;;;;;;;32.25;13.93;;;;;;;;;;5224570;23;20041;-86
2021/12/21 17:05:54;;;;;;;28.63;13.20;;;;;;;;;;5703097;23;20027;-84
2021/12/21 17:08:21;;;;;;;25.50;13.02;;;;;;;;;;4926325;23;20033;-85
2021/12/21 17:10:47;;;;;;;22.25;11.57;;;;;;;;;;5002116;23;20041;-85
2021/12/21 17:15:49;;;;;;;29.23;11.95;;;;;;;;;;5572825;23;20052;-84
2021/12/21 19:53:20;;;;;;;34.85;13.52;;;;;;;;;;5885298;23;20123;-86
2021/12/21 21:59:48;;;;;;;34.78;14.40;;;;;;;;;;5604407;23;20085;-88
2021/12/21 22:02:13;;;;;;;31.55;13.02;;;;;;;;;;4882419;29;20104;-87
2021/12/21 22:04:38;;;;;;;31.38;14.57;;;;;;;;;;4881137;29;20548;-86
2021/12/21 22:07:04;;;;;;;30.13;12.88;;;;;;;;;;4880671;29;20021;-85
2021/12/21 22:09:30;;;;;;;32.28;13.60;;;;;;;;;;4881563;29;20477;-87
2021/12/21 22:11:56;;;;;;;32.25;13.65;;;;;;;;;;4880486;29;20029;-88
2021/12/21 22:14:22;;;;;;;31.73;14.00;;;;;;;;;;4880213;29;20395;-87
2021/12/21 22:16:47;;;;;;;29.77;12.98;;;;;;;;;;4880617;29;20033;-87
2021/12/21 22:19:15;;;;;;;31.95;14.48;;;;;;;;;;4880434;29;20033;-89
2021/12/21 22:21:41;;;;;;;27.67;13.05;;;;;;;;;;4880389;29;20021;-88
2021/12/21 22:24:06;;;;;;;28.48;12.73;;;;;;;;;;4880444;29;20528;-86
2021/12/21 22:26:31;;;;;;;36.17;14.77;;;;;;;;;;4880334;29;20100;-89
2021/12/21 22:28:57;;;;;;;32.65;14.43;;;;;;;;;;4879778;29;20385;-89
2021/12/21 22:31:25;;;;;;;32.97;13.48;;;;;;;;;;4880341;29;20100;-89
2021/12/21 22:33:51;;;;;;;36.80;13.85;;;;;;;;;;4879165;29;20473;-87
2021/12/21 22:36:17;;;;;;;32.53;14.07;;;;;;;;;;4880951;29;20032;-88
2021/12/21 22:38:43;;;;;;;35.60;14.10;;;;;;;;;;4880979;29;20080;-88
2021/12/21 22:41:09;;;;;;;35.05;14.88;;;;;;;;;;4879676;29;20119;-88
2021/12/21 22:43:34;;;;;;;33.17;13.60;;;;;;;;;;4881103;29;20105;-87
2021/12/21 22:46:00;;;;;;;31.30;14.13;;;;;;;;;;4879532;29;20024;-87
2021/12/21 22:48:25;;;;;;;31.85;14.07;;;;;;;;;;4880756;29;20759;-87
2021/12/21 22:50:51;;;;;;;36.05;13.73;;;;;;;;;;4880253;29;20425;-88
2021/12/21 22:53:16;;;;;;;31.17;13.68;;;;;;;;;;4880890;29;20438;-87
2021/12/21 22:55:41;;;;;;;33.78;14.55;;;;;;;;;;4881420;29;20060;-85
2021/12/21 22:58:07;;;;;;;30.70;14.43;;;;;;;;;;4880243;29;20029;-86
2021/12/21 23:00:34;;;;;;;33.60;13.93;;;;;;;;;;4879435;29;20033;-86
2021/12/21 23:03:00;;;;;;;34.35;14.85;;;;;;;;;;4881238;29;20029;-86
2021/12/21 23:05:25;;;;;;;40.13;15.77;;;;;;;;;;4880700;29;20438;-87
2021/12/21 23:07:50;;;;;;;34.22;15.43;;;;;;;;;;4883161;29;20035;-85
2021/12/21 23:10:15;;;;;;;32.25;14.55;;;;;;;;;;4883455;29;20024;-86
2021/12/21 23:12:41;;;;;;;32.58;14.52;;;;;;;;;;4881672;29;20025;-87
2021/12/21 23:15:07;;;;;;;36.20;15.55;;;;;;;;;;4881652;29;20017;-87
2021/12/21 23:17:32;;;;;;;33.08;14.52;;;;;;;;;;4883394;29;20021;-88
2021/12/21 23:19:57;;;;;;;37.65;14.90;;;;;;;;;;4884268;29;20021;-84
2021/12/21 23:22:23;;;;;;;33.97;13.82;;;;;;;;;;4882344;29;20037;-86
2021/12/21 23:24:48;;;;;;;33.10;13.70;;;;;;;;;;4880607;29;20472;-86
2021/12/21 23:27:13;;;;;;;27.98;12.95;;;;;;;;;;4880501;29;20017;-87
2021/12/21 23:29:39;;;;;;;31.63;15.38;;;;;;;;;;4881508;29;20400;-86
2021/12/21 23:32:05;;;;;;;40.63;14.82;;;;;;;;;;4882772;29;20096;-85
2021/12/21 23:34:31;;;;;;;37.03;14.57;;;;;;;;;;4884620;29;20551;-86
2021/12/21 23:36:56;;;;;;;40.58;14.98;;;;;;;;;;4882566;29;20029;-87
2021/12/21 23:39:21;;;;;;;31.25;13.95;;;;;;;;;;4884357;29;20021;-85
2021/12/21 23:41:47;;;;;;;37.17;15.43;;;;;;;;;;4881161;29;20032;-87
2021/12/21 23:44:12;;;;;;;37.13;14.02;;;;;;;;;;4883935;29;20025;-84
2021/12/21 23:46:38;;;;;;;34.22;15.25;;;;;;;;;;4884392;29;20045;-87
2021/12/21 23:49:04;;;;;;;31.85;13.55;;;;;;;;;;4883697;29;20086;-85
2021/12/21 23:51:29;;;;;;;35.78;15.05;;;;;;;;;;4879792;29;20028;-84
2021/12/21 23:53:55;;;;;;;34.15;14.43;;;;;;;;;;4881644;29;20537;-86
2021/12/21 23:56:20;;;;;;;33.58;14.40;;;;;;;;;;4879373;29;20126;-87
2021/12/21 23:58:45;;;;;;;33.47;15.18;;;;;;;;;;4880148;29;20069;-86
